Time;durP1;ratioP1;P1;durP2;ratioP2;P2;SDS_P1;SDS_P2;PMS_P1;PMS_P2;Temp;Humidity;BMP_temperature;BMP_pressure;BME280_temperature;BME280_humidity;BME280_pressure;Samples;Min_cycle;Max_cycle;Signal;HPM_P1;HPM_P2
2021/06/03 00:01:56;;;;;;;5.00;3.67;;;;;;;;;;5002676;28;20033;-73
2021/06/03 00:04:22;;;;;;;5.60;3.60;;;;;;;;;;5014097;28;20037;-73
2021/06/03 00:06:47;;;;;;;4.00;3.00;;;;;;;;;;4997763;28;20087;-73
2021/06/03 00:09:13;;;;;;;5.28;3.58;;;;;;;;;;5029978;28;20110;-73
2021/06/03 00:11:39;;;;;;;4.72;3.40;;;;;;;;;;5030115;28;20037;-73
2021/06/03 00:14:04;;;;;;;5.93;2.95;;;;;;;;;;5013497;28;20090;-73
2021/06/03 00:16:33;;;;;;;4.30;2.25;;;;;;;;;;5030147;28;20029;-73
2021/06/03 00:19:09;;;;;;;5.03;2.70;;;;;;;;;;4982143;28;20029;-73
2021/06/03 00:21:34;;;;;;;4.10;2.28;;;;;;;;;;5013740;28;20383;-73
2021/06/03 00:24:00;;;;;;;3.38;2.13;;;;;;;;;;4996962;28;20030;-73
2021/06/03 00:26:25;;;;;;;4.18;2.33;;;;;;;;;;5014008;28;20030;-73
2021/06/03 00:28:51;;;;;;;4.68;2.28;;;;;;;;;;4981074;28;20036;-73
2021/06/03 00:31:16;;;;;;;3.70;1.95;;;;;;;;;;4997301;28;20029;-73
2021/06/03 00:33:42;;;;;;;2.95;1.70;;;;;;;;;;5000621;28;20064;-73
2021/06/03 00:36:08;;;;;;;3.38;2.03;;;;;;;;;;5017877;28;20029;-73
2021/06/03 00:38:34;;;;;;;4.10;1.80;;;;;;;;;;5017381;28;20036;-73
2021/06/03 00:40:59;;;;;;;3.00;1.98;;;;;;;;;;5017414;28;20534;-73
2021/06/03 00:43:25;;;;;;;4.05;2.30;;;;;;;;;;5034850;28;20037;-73
2021/06/03 00:45:50;;;;;;;3.03;2.00;;;;;;;;;;5016682;28;20135;-73
2021/06/03 00:48:16;;;;;;;2.47;1.40;;;;;;;;;;5017299;28;20048;-73
2021/06/03 00:50:44;;;;;;;3.90;1.83;;;;;;;;;;5017172;28;20123;-73
2021/06/03 00:53:11;;;;;;;3.55;1.80;;;;;;;;;;5016805;28;20040;-73
2021/06/03 00:55:37;;;;;;;2.95;1.98;;;;;;;;;;5033416;28;20036;-73
2021/06/03 00:58:03;;;;;;;2.05;1.15;;;;;;;;;;5017225;28;20045;-73
2021/06/03 01:00:28;;;;;;;2.88;1.77;;;;;;;;;;5016834;28;20091;-73
2021/06/03 01:02:54;;;;;;;2.72;1.77;;;;;;;;;;5034487;28;20033;-73
2021/06/03 01:05:22;;;;;;;2.28;1.60;;;;;;;;;;5000892;28;20037;-73
2021/06/03 01:07:50;;;;;;;2.97;1.65;;;;;;;;;;5032951;28;20033;-73
2021/06/03 01:10:29;;;;;;;2.35;1.45;;;;;;;;;;5017208;28;20036;-73
2021/06/03 01:13:10;;;;;;;2.28;1.50;;;;;;;;;;5033158;28;20044;-73
2021/06/03 01:15:38;;;;;;;3.17;1.73;;;;;;;;;;5017584;28;20033;-73
2021/06/03 01:18:03;;;;;;;3.40;1.48;;;;;;;;;;5000756;28;20033;-73
2021/06/03 01:20:33;;;;;;;2.60;1.52;;;;;;;;;;5016443;28;20041;-73
2021/06/03 01:23:23;;;;;;;1.80;1.38;;;;;;;;;;5016880;28;20029;-73
2021/06/03 01:25:49;;;;;;;3.85;1.50;;;;;;;;;;5010776;28;20053;-73
2021/06/03 01:28:15;;;;;;;2.88;1.52;;;;;;;;;;5016452;28;20024;-73
2021/06/03 01:30:46;;;;;;;3.25;1.27;;;;;;;;;;5016063;28;20041;-73
2021/06/03 01:33:13;;;;;;;1.77;1.20;;;;;;;;;;5017208;28;20033;-73
2021/06/03 01:35:42;;;;;;;2.90;1.40;;;;;;;;;;5016516;28;20033;-73
2021/06/03 01:38:10;;;;;;;2.47;1.45;;;;;;;;;;5016302;28;20083;-73
2021/06/03 01:40:36;;;;;;;2.63;1.10;;;;;;;;;;5016782;28;20029;-73
2021/06/03 01:43:01;;;;;;;2.20;1.40;;;;;;;;;;5032714;28;20033;-73
2021/06/03 01:45:27;;;;;;;3.03;1.48;;;;;;;;;;5015884;28;20440;-73
2021/06/03 01:47:53;;;;;;;2.47;1.30;;;;;;;;;;5016279;28;20033;-73
2021/06/03 01:50:18;;;;;;;2.05;1.20;;;;;;;;;;5032751;28;20038;-73
2021/06/03 01:52:44;;;;;;;3.05;1.75;;;;;;;;;;5015617;28;20029;-73
2021/06/03 01:55:10;;;;;;;2.55;1.27;;;;;;;;;;5016400;28;20530;-73
2021/06/03 01:57:37;;;;;;;2.05;1.20;;;;;;;;;;5015849;28;20111;-73
2021/06/03 02:00:04;;;;;;;2.00;1.23;;;;;;;;;;5032022;28;20045;-73
2021/06/03 02:02:31;;;;;;;4.47;1.90;;;;;;;;;;5012824;28;20029;-73
2021/06/03 02:04:56;;;;;;;3.90;1.50;;;;;;;;;;4996217;28;20044;-73
2021/06/03 02:07:22;;;;;;;3.17;1.45;;;;;;;;;;5012406;28;20042;-73
2021/06/03 02:09:47;;;;;;;2.58;1.52;;;;;;;;;;4980189;28;20409;-73
2021/06/03 02:12:13;;;;;;;2.78;1.42;;;;;;;;;;5012845;28;20038;-73
2021/06/03 02:14:39;;;;;;;3.75;2.08;;;;;;;;;;4995803;28;20077;-73
2021/06/03 02:17:22;;;;;;;2.28;1.70;;;;;;;;;;4996021;28;20449;-73
2021/06/03 02:20:11;;;;;;;3.90;1.45;;;;;;;;;;4995904;28;20037;-73
2021/06/03 02:22:37;;;;;;;2.30;1.38;;;;;;;;;;4997816;28;20030;-73
2021/06/03 02:25:06;;;;;;;3.05;1.23;;;;;;;;;;5012374;28;20037;-74
2021/06/03 02:27:32;;;;;;;3.17;1.80;;;;;;;;;;4995928;28;20051;-73
2021/06/03 02:29:57;;;;;;;2.80;1.58;;;;;;;;;;5013302;28;20053;-73
2021/06/03 02:32:23;;;;;;;2.60;1.30;;;;;;;;;;5015327;28;20087;-73
2021/06/03 02:34:49;;;;;;;2.40;1.40;;;;;;;;;;5032074;28;20033;-73
2021/06/03 02:37:15;;;;;;;3.15;1.45;;;;;;;;;;5015609;28;20074;-73
2021/06/03 02:39:46;;;;;;;3.03;1.30;;;;;;;;;;5014999;28;20041;-73
2021/06/03 02:42:11;;;;;;;5.00;1.63;;;;;;;;;;5031852;28;20036;-73
2021/06/03 02:44:38;;;;;;;3.33;1.50;;;;;;;;;;5015005;28;20034;-73
2021/06/03 02:47:04;;;;;;;2.88;1.67;;;;;;;;;;5015312;28;20052;-73
2021/06/03 02:49:30;;;;;;;3.40;1.65;;;;;;;;;;5011591;28;20475;-73
2021/06/03 02:51:55;;;;;;;2.50;1.45;;;;;;;;;;5011556;28;20026;-73
2021/06/03 02:54:21;;;;;;;2.90;1.40;;;;;;;;;;5011779;28;20081;-73
2021/06/03 02:56:46;;;;;;;2.55;1.40;;;;;;;;;;5011764;28;20022;-73
2021/06/03 02:59:12;;;;;;;3.47;1.08;;;;;;;;;;5011635;28;20064;-73
2021/06/03 03:01:37;;;;;;;3.22;1.80;;;;;;;;;;5011231;28;20159;-73
2021/06/03 03:04:03;;;;;;;2.65;1.55;;;;;;;;;;4994847;28;20444;-74
2021/06/03 03:06:28;;;;;;;3.03;1.45;;;;;;;;;;5011640;28;20030;-73
2021/06/03 03:08:54;;;;;;;1.92;1.40;;;;;;;;;;4978836;28;20088;-73
2021/06/03 03:11:19;;;;;;;3.78;1.50;;;;;;;;;;4994926;28;20041;-73
2021/06/03 03:13:45;;;;;;;2.03;1.45;;;;;;;;;;4994414;28;20056;-73
2021/06/03 03:16:10;;;;;;;2.10;1.35;;;;;;;;;;5012342;28;20107;-73
2021/06/03 03:18:36;;;;;;;3.35;1.50;;;;;;;;;;5010935;28;20399;-73
2021/06/03 03:21:03;;;;;;;2.47;1.55;;;;;;;;;;4994965;28;20041;-73
2021/06/03 03:23:29;;;;;;;3.78;2.20;;;;;;;;;;4994398;28;20041;-73
2021/06/03 03:25:54;;;;;;;2.35;1.70;;;;;;;;;;4994767;28;20026;-73
2021/06/03 03:28:20;;;;;;;3.42;1.80;;;;;;;;;;4995815;28;20045;-73
2021/06/03 03:30:47;;;;;;;2.40;1.75;;;;;;;;;;5010797;28;20121;-73
2021/06/03 03:33:13;;;;;;;3.72;1.73;;;;;;;;;;4997982;28;20119;-73
2021/06/03 03:35:39;;;;;;;3.92;1.67;;;;;;;;;;5030867;28;20083;-73
2021/06/03 03:38:05;;;;;;;2.25;1.40;;;;;;;;;;5031872;28;20033;-73
2021/06/03 03:40:30;;;;;;;4.07;1.75;;;;;;;;;;5030813;28;20439;-73
2021/06/03 03:42:56;;;;;;;2.78;1.50;;;;;;;;;;5030244;28;20044;-73
2021/06/03 03:45:22;;;;;;;1.95;1.15;;;;;;;;;;5014253;28;20247;-73
2021/06/03 03:47:48;;;;;;;3.05;2.10;;;;;;;;;;5013971;28;20029;-74
2021/06/03 03:50:14;;;;;;;2.95;1.50;;;;;;;;;;5030430;28;20029;-73
2021/06/03 03:52:40;;;;;;;3.05;1.55;;;;;;;;;;5014086;28;20044;-73
2021/06/03 03:55:06;;;;;;;2.13;1.55;;;;;;;;;;5014734;28;20033;-73
2021/06/03 03:57:32;;;;;;;3.05;1.77;;;;;;;;;;5013725;28;20136;-73
2021/06/03 03:59:57;;;;;;;4.13;1.70;;;;;;;;;;5013741;28;20380;-73
2021/06/03 04:02:25;;;;;;;4.15;2.28;;;;;;;;;;5030432;28;20037;-73
2021/06/03 04:04:50;;;;;;;2.55;1.27;;;;;;;;;;5030496;28;20029;-73
2021/06/03 04:07:16;;;;;;;2.40;1.98;;;;;;;;;;4998606;28;20037;-73
2021/06/03 04:09:41;;;;;;;3.35;2.08;;;;;;;;;;5017878;28;20044;-73
2021/06/03 04:12:08;;;;;;;3.85;2.17;;;;;;;;;;5018292;28;20033;-73
2021/06/03 04:14:33;;;;;;;3.80;1.77;;;;;;;;;;5034102;28;20034;-73
2021/06/03 04:16:59;;;;;;;3.13;1.63;;;;;;;;;;5017524;28;20038;-73
2021/06/03 04:19:24;;;;;;;2.53;1.73;;;;;;;;;;5034279;28;20037;-73
2021/06/03 04:21:50;;;;;;;3.35;2.08;;;;;;;;;;5017747;28;20059;-73
2021/06/03 04:24:16;;;;;;;4.35;1.98;;;;;;;;;;5017560;28;20143;-73
2021/06/03 04:26:41;;;;;;;2.90;1.58;;;;;;;;;;5018093;28;20033;-73
2021/06/03 04:29:07;;;;;;;5.28;1.63;;;;;;;;;;5033897;28;20056;-73
2021/06/03 04:31:32;;;;;;;3.47;1.80;;;;;;;;;;5017009;28;20372;-73
2021/06/03 04:33:58;;;;;;;2.92;1.90;;;;;;;;;;5034013;28;20041;-73
2021/06/03 04:36:23;;;;;;;3.30;1.77;;;;;;;;;;5017612;28;20025;-73
2021/06/03 04:38:49;;;;;;;4.15;1.92;;;;;;;;;;5017802;28;20029;-73
2021/06/03 04:41:15;;;;;;;3.58;1.80;;;;;;;;;;5017550;28;20033;-73
2021/06/03 04:43:42;;;;;;;2.88;1.60;;;;;;;;;;5033595;28;20064;-73
2021/06/03 04:46:08;;;;;;;2.72;1.60;;;;;;;;;;5033436;28;20047;-73
2021/06/03 04:48:33;;;;;;;3.35;1.88;;;;;;;;;;5014270;28;20026;-73
2021/06/03 04:50:59;;;;;;;3.97;1.92;;;;;;;;;;5013943;28;20491;-73
2021/06/03 04:53:24;;;;;;;3.53;1.58;;;;;;;;;;5013755;28;20034;-73
2021/06/03 04:55:49;;;;;;;2.78;1.75;;;;;;;;;;5014995;28;20030;-73
2021/06/03 04:58:15;;;;;;;3.72;1.92;;;;;;;;;;5013748;28;20053;-73
2021/06/03 05:00:41;;;;;;;3.42;2.30;;;;;;;;;;4996914;28;20060;-73
2021/06/03 05:03:07;;;;;;;3.03;1.60;;;;;;;;;;5013872;28;20025;-73
2021/06/03 05:05:33;;;;;;;2.55;1.80;;;;;;;;;;5013660;28;20454;-73
2021/06/03 05:07:58;;;;;;;2.83;1.90;;;;;;;;;;4997271;28;20395;-73
2021/06/03 05:10:25;;;;;;;4.43;1.63;;;;;;;;;;4997499;28;20038;-73
2021/06/03 05:12:50;;;;;;;5.47;1.70;;;;;;;;;;4997231;28;20036;-73
2021/06/03 05:15:16;;;;;;;2.90;1.80;;;;;;;;;;5013179;28;20112;-73
2021/06/03 05:17:41;;;;;;;3.05;1.80;;;;;;;;;;5013091;28;20056;-73
2021/06/03 05:20:09;;;;;;;4.00;1.92;;;;;;;;;;4997092;28;20072;-73
2021/06/03 05:22:34;;;;;;;3.45;1.73;;;;;;;;;;4997003;28;20030;-73
2021/06/03 05:25:00;;;;;;;4.30;1.88;;;;;;;;;;4997095;28;20491;-73
2021/06/03 05:27:25;;;;;;;3.60;1.80;;;;;;;;;;4996725;28;20388;-73
2021/06/03 05:29:51;;;;;;;2.78;1.92;;;;;;;;;;5026427;28;20045;-73
2021/06/03 05:32:16;;;;;;;3.00;2.00;;;;;;;;;;5000311;28;20041;-73
2021/06/03 05:34:42;;;;;;;2.50;2.00;;;;;;;;;;4999949;28;20044;-73
2021/06/03 05:37:07;;;;;;;3.83;1.80;;;;;;;;;;5032890;28;20060;-73
2021/06/03 05:39:33;;;;;;;2.67;2.17;;;;;;;;;;5032935;28;20037;-73
2021/06/03 05:41:58;;;;;;;2.80;2.00;;;;;;;;;;5032855;28;20037;-73
2021/06/03 05:44:24;;;;;;;4.60;1.88;;;;;;;;;;5032282;28;20060;-73
2021/06/03 05:46:49;;;;;;;3.58;1.90;;;;;;;;;;4999965;28;20083;-73
2021/06/03 05:49:15;;;;;;;3.25;2.28;;;;;;;;;;5032586;28;20037;-73
2021/06/03 05:51:40;;;;;;;2.40;1.60;;;;;;;;;;5016124;28;20430;-73
2021/06/03 05:54:07;;;;;;;3.45;2.20;;;;;;;;;;5032252;28;20033;-73
2021/06/03 05:56:32;;;;;;;3.67;1.80;;;;;;;;;;4999931;28;20096;-73
2021/06/03 05:58:58;;;;;;;3.15;2.20;;;;;;;;;;5015799;28;20038;-73
2021/06/03 06:01:23;;;;;;;4.50;2.05;;;;;;;;;;5015702;28;20025;-73
2021/06/03 06:03:57;;;;;;;2.63;1.70;;;;;;;;;;5015730;28;20088;-73
2021/06/03 06:06:24;;;;;;;3.65;1.90;;;;;;;;;;5032643;28;20037;-73
2021/06/03 06:08:56;;;;;;;5.00;2.60;;;;;;;;;;5032356;28;20541;-73
2021/06/03 06:11:23;;;;;;;4.05;2.22;;;;;;;;;;5016876;28;20021;-73
2021/06/03 06:13:48;;;;;;;3.00;1.85;;;;;;;;;;5015019;28;20433;-74
2021/06/03 06:16:14;;;;;;;2.70;1.83;;;;;;;;;;5015670;28;20113;-75
2021/06/03 06:18:40;;;;;;;4.38;2.13;;;;;;;;;;4999471;28;20086;-75
2021/06/03 06:21:06;;;;;;;2.72;1.73;;;;;;;;;;4999740;28;20067;-75
2021/06/03 06:23:38;;;;;;;3.65;2.03;;;;;;;;;;5031697;28;20061;-76
2021/06/03 06:26:04;;;;;;;4.60;2.30;;;;;;;;;;5015637;28;20025;-76
2021/06/03 06:28:29;;;;;;;3.85;2.00;;;;;;;;;;5031464;28;20098;-76
2021/06/03 06:30:55;;;;;;;3.00;1.90;;;;;;;;;;4997722;28;20025;-75
2021/06/03 06:33:21;;;;;;;3.08;2.00;;;;;;;;;;4998851;28;20551;-75
2021/06/03 06:35:49;;;;;;;3.88;2.30;;;;;;;;;;4999115;28;20391;-75
2021/06/03 06:38:15;;;;;;;2.90;1.77;;;;;;;;;;4999583;28;20438;-74
2021/06/03 06:40:40;;;;;;;5.22;2.80;;;;;;;;;;5015559;28;20022;-74
2021/06/03 06:43:06;;;;;;;3.25;2.40;;;;;;;;;;5031097;28;20041;-74
2021/06/03 06:45:32;;;;;;;3.67;2.20;;;;;;;;;;5014786;28;20040;-76
2021/06/03 06:48:14;;;;;;;4.05;1.90;;;;;;;;;;5015423;28;20033;-76
2021/06/03 06:50:39;;;;;;;3.77;2.43;;;;;;;;;;5017432;28;20116;-76
2021/06/03 06:53:08;;;;;;;4.25;2.55;;;;;;;;;;5014656;28;20029;-76
2021/06/03 06:55:34;;;;;;;2.97;1.95;;;;;;;;;;4998591;28;20120;-76
2021/06/03 06:57:59;;;;;;;3.97;2.17;;;;;;;;;;4998480;28;20104;-75
2021/06/03 07:00:34;;;;;;;3.70;2.53;;;;;;;;;;4982365;28;20037;-75
2021/06/03 07:02:59;;;;;;;5.13;2.05;;;;;;;;;;5015072;28;20057;-75
2021/06/03 07:05:25;;;;;;;3.28;2.40;;;;;;;;;;5014754;28;20483;-75
2021/06/03 07:07:50;;;;;;;3.92;2.45;;;;;;;;;;5014967;28;20033;-75
2021/06/03 07:10:16;;;;;;;4.20;2.50;;;;;;;;;;5030954;28;20051;-75
2021/06/03 07:12:41;;;;;;;4.03;2.22;;;;;;;;;;5014329;28;20029;-75
2021/06/03 07:15:09;;;;;;;4.40;2.67;;;;;;;;;;5031336;28;20033;-75
2021/06/03 07:17:34;;;;;;;4.80;2.75;;;;;;;;;;5014498;28;20108;-74
2021/06/03 07:19:59;;;;;;;3.58;2.38;;;;;;;;;;4998303;28;20123;-75
2021/06/03 07:22:25;;;;;;;4.15;1.90;;;;;;;;;;4997993;28;20395;-76
2021/06/03 07:24:53;;;;;;;4.38;2.45;;;;;;;;;;4998601;28;20033;-76
2021/06/03 07:27:18;;;;;;;3.63;2.50;;;;;;;;;;5014247;28;20369;-76
2021/06/03 07:29:43;;;;;;;3.83;1.98;;;;;;;;;;4997954;28;20438;-75
2021/06/03 07:32:09;;;;;;;4.18;2.35;;;;;;;;;;5014403;28;20040;-75
2021/06/03 07:34:35;;;;;;;3.72;2.15;;;;;;;;;;5030866;28;20033;-75
2021/06/03 07:37:00;;;;;;;3.90;2.28;;;;;;;;;;5014397;28;20037;-74
2021/06/03 07:39:26;;;;;;;4.07;2.67;;;;;;;;;;4997525;28;20387;-74
2021/06/03 07:41:52;;;;;;;3.85;2.38;;;;;;;;;;4997308;28;20128;-74
2021/06/03 07:44:17;;;;;;;4.05;2.47;;;;;;;;;;5014287;28;20116;-74
2021/06/03 07:46:43;;;;;;;4.05;2.47;;;;;;;;;;4981560;28;20041;-74
2021/06/03 07:49:13;;;;;;;5.78;2.58;;;;;;;;;;4978364;28;20041;-74
2021/06/03 07:51:38;;;;;;;3.50;2.30;;;;;;;;;;5010937;28;20061;-74
2021/06/03 07:54:04;;;;;;;4.43;2.60;;;;;;;;;;5009876;28;20113;-73
2021/06/03 07:56:29;;;;;;;4.75;2.50;;;;;;;;;;4994892;28;20100;-73
2021/06/03 07:58:55;;;;;;;4.70;3.08;;;;;;;;;;4994855;28;20026;-74
2021/06/03 08:01:44;;;;;;;4.50;2.83;;;;;;;;;;4994062;28;20022;-74
2021/06/03 08:04:10;;;;;;;5.90;3.35;;;;;;;;;;5048006;23;20106;-73
2021/06/03 08:06:36;;;;;;;5.47;4.40;;;;;;;;;;5050473;28;20024;-73
2021/06/03 08:09:01;;;;;;;6.97;3.50;;;;;;;;;;5033227;28;20110;-73
2021/06/03 08:11:26;;;;;;;4.25;2.45;;;;;;;;;;5015702;28;20033;-73
2021/06/03 08:13:52;;;;;;;6.68;3.50;;;;;;;;;;5026756;28;20315;-73
2021/06/03 08:16:19;;;;;;;5.65;3.67;;;;;;;;;;5026914;28;20048;-73
2021/06/03 08:18:45;;;;;;;6.78;3.53;;;;;;;;;;4994746;28;20117;-73
2021/06/03 08:21:10;;;;;;;6.80;3.53;;;;;;;;;;5026848;28;20550;-73
2021/06/03 08:23:36;;;;;;;4.65;3.10;;;;;;;;;;5026122;28;20041;-73
2021/06/03 08:26:01;;;;;;;6.43;3.80;;;;;;;;;;5027115;28;20025;-73
2021/06/03 08:28:27;;;;;;;5.45;3.50;;;;;;;;;;5021258;28;20055;-73
2021/06/03 08:30:55;;;;;;;5.13;3.78;;;;;;;;;;5033097;28;20167;-73
2021/06/03 08:33:21;;;;;;;5.15;3.03;;;;;;;;;;5014140;28;20045;-73
2021/06/03 08:35:46;;;;;;;4.78;3.13;;;;;;;;;;5029946;28;20032;-73
2021/06/03 08:38:12;;;;;;;6.00;3.17;;;;;;;;;;5028799;28;20053;-73
2021/06/03 08:40:45;;;;;;;8.73;4.07;;;;;;;;;;5028902;28;20395;-73
2021/06/03 08:43:11;;;;;;;6.22;3.83;;;;;;;;;;5011437;28;20520;-73
2021/06/03 08:45:38;;;;;;;5.57;3.83;;;;;;;;;;5012702;28;20025;-73
2021/06/03 08:48:04;;;;;;;5.60;3.78;;;;;;;;;;5013662;28;20049;-73
2021/06/03 08:50:32;;;;;;;5.78;3.92;;;;;;;;;;5013759;28;20029;-73
2021/06/03 08:52:58;;;;;;;7.93;4.75;;;;;;;;;;5030014;28;20438;-73
2021/06/03 08:58:10;;;;;;;7.70;5.07;;;;;;;;;;5019765;28;20026;-73
2021/06/03 09:00:35;;;;;;;6.00;5.40;;;;;;;;;;5033487;28;20091;-73
2021/06/03 09:03:01;;;;;;;5.38;3.88;;;;;;;;;;5013343;28;20074;-73
2021/06/03 09:05:26;;;;;;;5.18;3.83;;;;;;;;;;5013691;28;20116;-73
2021/06/03 09:07:52;;;;;;;6.07;4.45;;;;;;;;;;4997010;28;20133;-73
2021/06/03 09:10:27;;;;;;;5.43;3.85;;;;;;;;;;4997041;28;20136;-73
2021/06/03 09:13:19;;;;;;;5.85;3.85;;;;;;;;;;5013333;28;20042;-73
2021/06/03 09:15:50;;;;;;;5.67;3.90;;;;;;;;;;4999162;28;20030;-73
2021/06/03 09:18:16;;;;;;;6.72;4.25;;;;;;;;;;4981405;28;20498;-73
2021/06/03 09:20:44;;;;;;;7.13;3.55;;;;;;;;;;4996936;28;20029;-73
2021/06/03 09:23:30;;;;;;;5.95;4.05;;;;;;;;;;4996936;28;20030;-73
2021/06/03 09:25:56;;;;;;;8.52;3.90;;;;;;;;;;5013051;28;20030;-73
2021/06/03 09:28:39;;;;;;;6.50;3.63;;;;;;;;;;5022854;28;20029;-73
2021/06/03 09:31:09;;;;;;;6.35;4.55;;;;;;;;;;5050949;28;20033;-73
2021/06/03 09:33:53;;;;;;;5.70;3.92;;;;;;;;;;5016068;28;20491;-73
2021/06/03 09:36:42;;;;;;;7.50;4.32;;;;;;;;;;5032687;28;20044;-73
2021/06/03 09:39:19;;;;;;;5.05;3.90;;;;;;;;;;5000418;28;20167;-73
2021/06/03 09:41:54;;;;;;;7.50;4.20;;;;;;;;;;5001215;28;20104;-73
2021/06/03 09:44:33;;;;;;;6.47;4.25;;;;;;;;;;5033428;28;20033;-73
2021/06/03 09:47:04;;;;;;;6.95;4.57;;;;;;;;;;5032226;28;20049;-73
2021/06/03 09:49:31;;;;;;;6.50;4.25;;;;;;;;;;5003520;28;20547;-73
2021/06/03 09:51:59;;;;;;;8.02;5.38;;;;;;;;;;4996350;28;20041;-73
2021/06/03 09:54:25;;;;;;;6.03;4.53;;;;;;;;;;5012909;28;20388;-73
2021/06/03 09:56:59;;;;;;;8.65;5.05;;;;;;;;;;5012731;28;20042;-73
2021/06/03 09:59:34;;;;;;;9.18;4.90;;;;;;;;;;5012467;28;20057;-73
2021/06/03 10:02:00;;;;;;;5.30;4.13;;;;;;;;;;5032504;28;20033;-73
2021/06/03 10:04:29;;;;;;;5.88;4.35;;;;;;;;;;5031887;28;20042;-73
2021/06/03 10:06:59;;;;;;;7.32;4.45;;;;;;;;;;5032334;28;20065;-73
2021/06/03 10:09:46;;;;;;;5.47;4.45;;;;;;;;;;5032885;28;20036;-73
2021/06/03 10:12:28;;;;;;;7.88;4.75;;;;;;;;;;5033377;28;20029;-73
2021/06/03 10:14:57;;;;;;;7.13;4.35;;;;;;;;;;5032595;28;20045;-73
2021/06/03 10:17:33;;;;;;;6.43;4.50;;;;;;;;;;5032078;28;20068;-74
2021/06/03 10:20:00;;;;;;;6.43;4.72;;;;;;;;;;5032093;28;20029;-73
2021/06/03 10:22:28;;;;;;;6.28;4.68;;;;;;;;;;5015997;28;20030;-73
2021/06/03 10:24:53;;;;;;;7.63;4.53;;;;;;;;;;4983252;28;20037;-74
2021/06/03 10:27:20;;;;;;;6.53;4.80;;;;;;;;;;5048192;28;20041;-74
2021/06/03 10:29:48;;;;;;;7.25;4.70;;;;;;;;;;5047326;28;20021;-74
2021/06/03 10:32:15;;;;;;;6.43;5.40;;;;;;;;;;5024560;28;20049;-73
2021/06/03 10:34:40;;;;;;;7.75;5.25;;;;;;;;;;5015050;28;20037;-74
2021/06/03 10:37:06;;;;;;;6.75;4.97;;;;;;;;;;5015583;28;20103;-74
2021/06/03 10:39:32;;;;;;;9.77;4.80;;;;;;;;;;5031533;28;20087;-74
2021/06/03 10:42:00;;;;;;;5.28;4.57;;;;;;;;;;4982569;28;20040;-74
2021/06/03 10:44:26;;;;;;;6.15;4.85;;;;;;;;;;4999458;28;20029;-74
2021/06/03 10:46:51;;;;;;;5.35;4.70;;;;;;;;;;5015007;28;20104;-74
2021/06/03 10:49:17;;;;;;;6.88;5.45;;;;;;;;;;5011594;28;20029;-74
2021/06/03 10:51:43;;;;;;;7.35;5.18;;;;;;;;;;5011686;28;20111;-74
2021/06/03 10:54:08;;;;;;;6.38;5.15;;;;;;;;;;5048705;28;20032;-74
2021/06/03 10:56:34;;;;;;;9.35;4.55;;;;;;;;;;5018434;28;20025;-74
2021/06/03 10:59:02;;;;;;;8.57;4.78;;;;;;;;;;5034538;28;20103;-74
2021/06/03 11:01:29;;;;;;;6.53;5.07;;;;;;;;;;5026864;28;20030;-74
2021/06/03 11:04:01;;;;;;;6.78;5.18;;;;;;;;;;4995254;28;20073;-74
2021/06/03 11:06:28;;;;;;;7.30;4.63;;;;;;;;;;4996028;28;20057;-74
2021/06/03 11:08:57;;;;;;;6.90;4.97;;;;;;;;;;4995459;28;20033;-74
2021/06/03 11:11:27;;;;;;;7.13;4.95;;;;;;;;;;5027672;28;20034;-74
2021/06/03 11:13:53;;;;;;;7.22;5.13;;;;;;;;;;5011212;28;20033;-73
2021/06/03 11:16:22;;;;;;;7.28;5.57;;;;;;;;;;5011669;28;20048;-74
2021/06/03 11:18:48;;;;;;;6.55;4.78;;;;;;;;;;5011358;28;20034;-74
2021/06/03 11:21:32;;;;;;;6.28;5.30;;;;;;;;;;5027816;28;20060;-73
2021/06/03 11:24:10;;;;;;;5.97;5.38;;;;;;;;;;5011970;28;20025;-73
2021/06/03 11:26:42;;;;;;;6.85;5.20;;;;;;;;;;4995855;28;20030;-73
2021/06/03 11:29:18;;;;;;;;;;;;;;;;;;5049986;28;20029;-73
2021/06/03 11:32:10;;;;;;;6.97;5.70;;;;;;;;;;5043077;28;19919;-73
2021/06/03 11:34:38;;;;;;;7.28;5.93;;;;;;;;;;5028837;28;20408;-73
2021/06/03 11:37:12;;;;;;;6.80;5.22;;;;;;;;;;5047504;28;20369;-73
2021/06/03 11:39:41;;;;;;;7.72;5.93;;;;;;;;;;5030483;28;20049;-73
2021/06/03 11:42:18;;;;;;;6.05;5.43;;;;;;;;;;5014520;28;20091;-74
2021/06/03 11:45:07;;;;;;;6.15;5.10;;;;;;;;;;5031500;28;20048;-73
2021/06/03 11:47:41;;;;;;;6.80;5.82;;;;;;;;;;5031144;28;20730;-73
2021/06/03 11:50:16;;;;;;;7.68;5.55;;;;;;;;;;5032511;28;20037;-73
2021/06/03 11:52:59;;;;;;;7.50;5.50;;;;;;;;;;5030231;28;20033;-73
2021/06/03 11:55:31;;;;;;;7.65;5.63;;;;;;;;;;5030475;28;20026;-73
2021/06/03 11:58:22;;;;;;;8.40;6.60;;;;;;;;;;5030436;28;20033;-73
2021/06/03 12:01:08;;;;;;;6.22;5.60;;;;;;;;;;5013640;28;20033;-73
2021/06/03 12:03:40;;;;;;;7.22;5.55;;;;;;;;;;5028899;28;20539;-73
2021/06/03 12:06:06;;;;;;;7.38;5.85;;;;;;;;;;4994260;28;20452;-73
2021/06/03 12:08:48;;;;;;;7.15;5.40;;;;;;;;;;5010422;28;20117;-73
2021/06/03 12:11:15;;;;;;;;;;;;;;;;;;4994406;28;20069;-73
2021/06/03 12:13:41;;;;;;;5.45;4.80;;;;;;;;;;5010502;28;19916;-73
2021/06/03 12:16:06;;;;;;;7.85;5.55;;;;;;;;;;5009977;28;20054;-74
2021/06/03 12:18:39;;;;;;;6.00;5.07;;;;;;;;;;4994185;28;20064;-73
2021/06/03 12:21:06;;;;;;;7.43;5.70;;;;;;;;;;5012087;28;20104;-74
2021/06/03 12:23:31;;;;;;;10.57;5.55;;;;;;;;;;5010055;28;20030;-74
2021/06/03 12:25:57;;;;;;;7.13;5.35;;;;;;;;;;4994481;28;20137;-74
2021/06/03 12:28:22;;;;;;;6.80;5.20;;;;;;;;;;5021600;28;20021;-74
2021/06/03 12:30:48;;;;;;;6.45;5.72;;;;;;;;;;5037042;28;20399;-74
2021/06/03 12:33:23;;;;;;;9.27;5.75;;;;;;;;;;5017645;28;20068;-74
2021/06/03 12:35:50;;;;;;;7.38;5.63;;;;;;;;;;5018933;28;20049;-73
2021/06/03 12:38:48;;;;;;;6.10;4.97;;;;;;;;;;5017562;28;20029;-74
2021/06/03 12:41:34;;;;;;;7.88;5.13;;;;;;;;;;5034121;28;20165;-74
2021/06/03 12:44:02;;;;;;;6.50;5.35;;;;;;;;;;5033406;28;20032;-74
2021/06/03 12:46:35;;;;;;;8.43;5.47;;;;;;;;;;5001256;28;20041;-74
2021/06/03 12:49:06;;;;;;;6.22;5.45;;;;;;;;;;4997992;28;20049;-74
2021/06/03 12:51:32;;;;;;;8.77;6.00;;;;;;;;;;5014127;28;20041;-74
2021/06/03 12:53:57;;;;;;;7.07;4.97;;;;;;;;;;5013695;28;20034;-74
2021/06/03 12:56:23;;;;;;;6.03;5.43;;;;;;;;;;5013808;28;20069;-74
2021/06/03 12:58:52;;;;;;;6.75;5.75;;;;;;;;;;5013683;28;20038;-74
2021/06/03 13:01:17;;;;;;;5.72;5.20;;;;;;;;;;5017119;28;20483;-74
2021/06/03 13:03:51;;;;;;;6.47;5.43;;;;;;;;;;5032832;28;20134;-74
2021/06/03 13:06:16;;;;;;;7.68;5.93;;;;;;;;;;4999842;28;20022;-74
2021/06/03 13:08:51;;;;;;;7.15;5.30;;;;;;;;;;5016452;28;20036;-74
2021/06/03 13:11:27;;;;;;;7.05;5.45;;;;;;;;;;5032707;28;20029;-74
2021/06/03 13:13:53;;;;;;;7.20;5.32;;;;;;;;;;5033065;28;20037;-74
2021/06/03 13:16:23;;;;;;;7.28;5.18;;;;;;;;;;5016902;28;20044;-74
2021/06/03 13:18:48;;;;;;;7.55;5.57;;;;;;;;;;5016868;28;20037;-74
2021/06/03 13:21:14;;;;;;;5.55;5.05;;;;;;;;;;5016587;28;20087;-74
2021/06/03 13:23:40;;;;;;;5.78;4.68;;;;;;;;;;5049642;28;20112;-74
2021/06/03 13:26:05;;;;;;;5.53;4.97;;;;;;;;;;5016544;28;20026;-74
2021/06/03 13:28:31;;;;;;;6.78;5.57;;;;;;;;;;4999871;28;20025;-74
2021/06/03 13:30:58;;;;;;;9.52;6.00;;;;;;;;;;5016255;28;20029;-74
2021/06/03 13:33:26;;;;;;;8.45;5.63;;;;;;;;;;5016350;28;20041;-74
2021/06/03 13:35:59;;;;;;;6.78;5.57;;;;;;;;;;4999946;28;20032;-74
2021/06/03 13:38:25;;;;;;;11.27;5.75;;;;;;;;;;5016930;28;20029;-74
2021/06/03 13:40:50;;;;;;;11.73;6.05;;;;;;;;;;5016387;28;20105;-74
2021/06/03 13:43:26;;;;;;;7.60;6.40;;;;;;;;;;5016135;28;20036;-74
2021/06/03 13:45:53;;;;;;;7.40;6.45;;;;;;;;;;5000920;28;20033;-74
2021/06/03 13:48:29;;;;;;;8.77;6.75;;;;;;;;;;5016217;28;20025;-74
2021/06/03 13:51:02;;;;;;;6.57;5.88;;;;;;;;;;5016699;28;20030;-74
2021/06/03 13:53:50;;;;;;;6.60;5.75;;;;;;;;;;5000099;28;20087;-74
2021/06/03 13:56:16;;;;;;;8.77;5.57;;;;;;;;;;5017678;28;20087;-74
2021/06/03 13:58:45;;;;;;;8.15;5.55;;;;;;;;;;5032426;28;20033;-74
2021/06/03 14:01:27;;;;;;;7.15;5.90;;;;;;;;;;5032591;28;20087;-74
2021/06/03 14:04:13;;;;;;;7.88;6.20;;;;;;;;;;5033111;28;20052;-74
2021/06/03 14:06:46;;;;;;;7.60;5.88;;;;;;;;;;5016078;28;20121;-74
2021/06/03 14:09:18;;;;;;;7.18;5.80;;;;;;;;;;5032100;28;20044;-74
2021/06/03 14:14:25;;;;;;;6.15;5.55;;;;;;;;;;5031824;28;20040;-74
2021/06/03 14:16:53;;;;;;;6.22;5.63;;;;;;;;;;5032929;28;20103;-74
2021/06/03 14:19:25;;;;;;;6.50;5.15;;;;;;;;;;5033858;28;20096;-74
2021/06/03 14:22:07;;;;;;;6.35;5.25;;;;;;;;;;5048858;28;20041;-74
2021/06/03 14:24:33;;;;;;;8.32;5.35;;;;;;;;;;5033225;28;20080;-74
2021/06/03 14:27:21;;;;;;;6.82;5.50;;;;;;;;;;5031760;28;20025;-74
2021/06/03 14:29:51;;;;;;;7.18;4.80;;;;;;;;;;5047726;28;20036;-74
2021/06/03 14:32:18;;;;;;;6.70;5.22;;;;;;;;;;5040277;28;20487;-74
2021/06/03 14:34:44;;;;;;;6.70;5.72;;;;;;;;;;5032054;28;20106;-74
2021/06/03 14:37:14;;;;;;;6.07;5.20;;;;;;;;;;5015690;28;20017;-74
2021/06/03 14:39:43;;;;;;;5.90;5.25;;;;;;;;;;5014961;28;20029;-74
2021/06/03 14:42:30;;;;;;;5.88;5.32;;;;;;;;;;5032092;28;20057;-74
2021/06/03 14:44:59;;;;;;;6.32;5.38;;;;;;;;;;5031272;28;20033;-73
2021/06/03 14:47:24;;;;;;;5.90;5.30;;;;;;;;;;4998875;28;20029;-74
2021/06/03 14:49:51;;;;;;;7.28;5.32;;;;;;;;;;5014832;28;20458;-73
2021/06/03 14:52:41;;;;;;;7.38;5.30;;;;;;;;;;5014524;28;20033;-74
2021/06/03 14:55:08;;;;;;;6.97;5.47;;;;;;;;;;5047562;28;20040;-74
2021/06/03 14:57:33;;;;;;;5.15;4.53;;;;;;;;;;5015379;28;20496;-74